Time;durP1;ratioP1;P1;durP2;ratioP2;P2;SDS_P1;SDS_P2;PMS_P1;PMS_P2;Temp;Humidity;BMP_temperature;BMP_pressure;BME280_temperature;BME280_humidity;BME280_pressure;Samples;Min_cycle;Max_cycle;Signal;HPM_P1;HPM_P2
2023/12/12 00:01:52;;;;;;;99.25;64.90;;;;;;;20.90;62.34;99716.69;20733749;28;20230;-58
2023/12/12 00:11:55;;;;;;;90.03;62.20;;;;;;;20.89;62.54;99715.06;20737832;28;20211;-58
2023/12/12 00:21:57;;;;;;;82.13;56.10;;;;;;;20.84;61.90;99712.50;20728990;28;20323;-55
2023/12/12 00:32:00;;;;;;;75.47;50.65;;;;;;;20.78;62.33;99708.28;20722028;28;20207;-57
2023/12/12 00:42:03;;;;;;;64.85;43.72;;;;;;;20.74;62.07;99701.75;20715512;28;20226;-57
2023/12/12 00:52:06;;;;;;;58.85;40.72;;;;;;;20.68;62.14;99709.66;20706719;28;20212;-57
2023/12/12 01:02:08;;;;;;;50.67;35.88;;;;;;;20.65;62.09;99716.84;20694024;28;20572;-55
2023/12/12 01:12:11;;;;;;;51.35;33.97;;;;;;;20.57;62.33;99715.03;20714861;28;20201;-50
2023/12/12 01:22:13;;;;;;;39.53;29.05;;;;;;;20.55;62.35;99706.09;20692161;28;20621;-57
2023/12/12 01:32:16;;;;;;;38.30;26.95;;;;;;;20.51;62.33;99724.97;20692797;28;20208;-55
2023/12/12 01:42:18;;;;;;;36.70;24.70;;;;;;;20.46;62.34;99719.59;20698996;28;20220;-51
2023/12/12 01:52:21;;;;;;;29.80;21.55;;;;;;;20.44;62.52;99719.13;20707862;28;20205;-57
2023/12/12 02:02:23;;;;;;;30.42;21.95;;;;;;;20.42;61.33;99713.03;20702726;28;20221;-59
2023/12/12 02:12:26;;;;;;;25.77;19.27;;;;;;;20.38;60.98;99695.19;20729073;28;20198;-59
2023/12/12 02:22:29;;;;;;;26.02;19.05;;;;;;;20.40;60.95;99695.59;20717649;28;20226;-58
2023/12/12 02:32:31;;;;;;;25.63;17.73;;;;;;;20.41;60.49;99700.06;20697747;28;20232;-58
2023/12/12 02:42:34;;;;;;;24.13;17.10;;;;;;;20.49;60.43;99701.09;20730245;28;20231;-58
2023/12/12 02:52:36;;;;;;;20.48;15.73;;;;;;;20.55;60.42;99694.78;20711360;28;20212;-58
2023/12/12 03:02:39;;;;;;;20.80;15.40;;;;;;;20.55;59.99;99699.63;20736078;28;20694;-58
2023/12/12 03:12:41;;;;;;;17.60;13.23;;;;;;;20.61;60.05;99693.34;20724452;28;20594;-56
2023/12/12 03:22:44;;;;;;;20.45;13.05;;;;;;;20.68;60.10;99692.69;20724425;28;20225;-58
2023/12/12 03:32:46;;;;;;;17.88;12.73;;;;;;;20.76;59.96;99693.72;20703949;28;20209;-59
2023/12/12 03:42:49;;;;;;;17.30;12.60;;;;;;;20.99;59.36;99700.34;20711794;28;20230;-59
2023/12/12 03:52:52;;;;;;;16.55;11.85;;;;;;;21.47;57.79;99682.06;20723221;28;20211;-57
2023/12/12 04:02:55;;;;;;;14.50;10.48;;;;;;;21.59;57.10;99673.41;20746005;28;20819;-56
2023/12/12 04:12:57;;;;;;;15.13;10.48;;;;;;;21.65;57.32;99665.47;20695138;28;20590;-57
2023/12/12 04:23:00;;;;;;;13.32;9.45;;;;;;;21.61;57.23;99658.91;20711339;28;20280;-59
2023/12/12 04:33:02;;;;;;;12.07;9.02;;;;;;;21.61;57.48;99647.56;20710035;28;20198;-59
2023/12/12 04:43:05;;;;;;;12.07;8.57;;;;;;;21.63;57.47;99650.84;20685365;28;20226;-59
2023/12/12 04:53:06;;;;;;;12.30;8.48;;;;;;;21.57;57.73;99641.00;20710228;28;20605;-59
2023/12/12 05:03:09;;;;;;;11.30;8.05;;;;;;;21.56;57.13;99619.53;20684341;28;20217;-52
2023/12/12 05:13:11;;;;;;;11.32;7.53;;;;;;;21.54;56.73;99616.28;20690872;28;20585;-52
2023/12/12 05:23:14;;;;;;;10.52;7.13;;;;;;;21.52;57.09;99630.00;20687569;28;20234;-58
2023/12/12 05:33:16;;;;;;;10.60;7.15;;;;;;;21.43;57.22;99623.72;20686564;28;20194;-59
2023/12/12 05:43:20;;;;;;;9.50;6.80;;;;;;;21.35;57.32;99620.75;20682823;28;20234;-59
2023/12/12 05:53:22;;;;;;;8.77;6.40;;;;;;;21.30;57.66;99618.22;20691307;28;20260;-58
2023/12/12 06:03:25;;;;;;;9.20;6.32;;;;;;;21.31;56.98;99622.69;20670416;28;20232;-58
2023/12/12 06:13:26;;;;;;;8.25;5.72;;;;;;;21.30;56.90;99626.69;20693115;28;20207;-58
2023/12/12 06:23:30;;;;;;;8.88;5.45;;;;;;;21.23;57.41;99611.59;20725879;28;20648;-59
2023/12/12 06:33:33;;;;;;;9.38;5.38;;;;;;;21.23;57.22;99603.91;20740038;28;20229;-60
2023/12/12 06:43:36;;;;;;;7.25;4.95;;;;;;;21.23;57.13;99586.94;20719878;28;20253;-59
2023/12/12 06:53:38;;;;;;;8.45;5.18;;;;;;;21.21;57.26;99580.81;20701656;28;20208;-59
2023/12/12 07:03:41;;;;;;;6.20;4.47;;;;;;;21.19;57.13;99583.19;20718036;28;20217;-60
2023/12/12 07:13:43;;;;;;;7.20;4.85;;;;;;;21.16;57.86;99581.06;20711851;28;20201;-58
2023/12/12 07:23:48;;;;;;;9.55;4.55;;;;;;;21.15;58.24;99584.31;20717910;28;20252;-60
2023/12/12 07:33:50;;;;;;;6.97;4.22;;;;;;;21.22;57.72;99581.66;20731037;28;20208;-60
2023/12/12 07:43:53;;;;;;;7.80;3.97;;;;;;;21.19;58.99;99594.53;20710747;28;20252;-58
2023/12/12 07:53:55;;;;;;;6.35;4.00;;;;;;;21.28;59.92;99569.66;20732397;28;20521;-58
2023/12/12 08:03:58;;;;;;;7.05;3.97;;;;;;;21.32;60.46;99559.22;20726839;28;20296;-58
2023/12/12 08:14:01;;;;;;;7.93;3.88;;;;;;;21.45;59.88;99542.91;20734306;28;20206;-52
2023/12/12 08:24:05;;;;;;;5.60;2.90;;;;;;;21.21;63.32;99540.38;20712558;28;20229;-52
2023/12/12 08:34:07;;;;;;;59.58;34.58;;;;;;;20.81;59.25;99526.56;20702854;28;20260;-50
2023/12/12 08:44:11;;;;;;;17.33;10.45;;;;;;;21.02;61.66;99516.56;20686156;28;20694;-49
2023/12/12 08:54:13;;;;;;;16.40;9.82;;;;;;;21.10;62.24;99502.53;20651180;28;20205;-46
2023/12/12 09:04:16;;;;;;;15.43;8.77;;;;;;;21.14;63.79;99500.63;20642606;28;20305;-50
2023/12/12 09:14:18;;;;;;;13.20;8.88;;;;;;;21.18;63.20;99501.47;20640579;28;20194;-44
2023/12/12 09:24:21;;;;;;;21.48;12.77;;;;;;;21.15;62.77;99490.94;20645523;28;20296;-43
2023/12/12 09:34:23;;;;;;;101.72;61.75;;;;;;;21.17;63.36;99478.03;20659074;28;20208;-45
2023/12/12 09:44:30;;;;;;;127.07;80.10;;;;;;;21.23;64.16;99464.44;20632518;28;20253;-52
2023/12/12 09:54:32;;;;;;;130.32;82.28;;;;;;;21.29;63.83;99458.06;20659782;28;20329;-50
2023/12/12 10:04:35;;;;;;;121.10;79.03;;;;;;;21.30;64.17;99442.75;20663216;28;20224;-46
2023/12/12 10:14:38;;;;;;;97.05;59.92;;;;;;;21.16;62.22;99413.34;20647707;28;20195;-44
2023/12/12 10:24:41;;;;;;;84.90;54.40;;;;;;;21.32;62.47;99386.59;20654134;28;20232;-49
2023/12/12 10:34:46;;;;;;;74.72;47.90;;;;;;;21.50;63.38;99380.41;20672092;28;20731;-43
2023/12/12 10:44:52;;;;;;;72.53;47.38;;;;;;;21.42;62.60;99351.19;20700397;28;20224;-43
2023/12/12 10:54:54;;;;;;;60.63;38.75;;;;;;;21.44;62.38;99333.81;20751703;28;20295;-51
2023/12/12 11:04:57;;;;;;;102.45;62.38;;;;;;;21.47;62.90;99316.88;20757808;28;20216;-45
2023/12/12 11:14:59;;;;;;;125.47;78.10;;;;;;;21.56;63.73;99289.09;20737417;28;20193;-42
2023/12/12 11:25:07;;;;;;;123.35;79.45;;;;;;;21.67;63.08;99264.63;20727998;28;20229;-44
2023/12/12 11:35:25;;;;;;;117.22;75.35;;;;;;;21.63;63.16;99257.28;20665991;28;20213;-43
2023/12/12 11:45:32;;;;;;;104.22;66.57;;;;;;;21.77;63.15;99251.81;20656626;28;20226;-48
2023/12/12 11:55:36;;;;;;;92.03;59.28;;;;;;;21.84;63.12;99239.75;20682251;28;20288;-42
2023/12/12 12:05:39;;;;;;;167.52;107.75;;;;;;;21.90;63.36;99224.88;20695519;28;20663;-43
2023/12/12 12:15:45;;;;;;;192.57;127.63;;;;;;;21.92;63.69;99202.66;20646786;28;20560;-44
2023/12/12 12:25:48;;;;;;;222.93;140.38;;;;;;;21.84;65.23;99180.28;20673771;28;20269;-41
2023/12/12 12:35:52;;;;;;;269.42;176.50;;;;;;;22.08;64.33;99172.09;20673752;28;20198;-47
2023/12/12 12:46:10;;;;;;;251.02;162.98;;;;;;;22.16;63.60;99158.84;20688282;28;20229;-53
2023/12/12 12:56:12;;;;;;;181.65;114.13;;;;;;;21.73;60.49;99135.66;20692123;28;20197;-41
2023/12/12 13:06:15;;;;;;;166.85;105.90;;;;;;;22.06;60.94;99126.34;20698242;28;20556;-39
2023/12/12 13:16:19;;;;;;;155.18;98.40;;;;;;;22.03;61.10;99118.63;20660042;28;20517;-39
2023/12/12 13:26:23;;;;;;;109.50;71.85;;;;;;;21.85;60.43;99114.75;20640959;28;20233;-51
2023/12/12 13:36:24;;;;;;;97.03;63.17;;;;;;;21.90;60.04;99100.25;20665078;28;20296;-41
2023/12/12 13:46:28;;;;;;;84.97;54.75;;;;;;;21.87;60.56;99089.69;20671287;28;20517;-41
2023/12/12 13:56:29;;;;;;;66.93;44.22;;;;;;;21.77;59.30;99079.06;20677235;28;20212;-39
2023/12/12 14:06:33;;;;;;;89.00;59.15;;;;;;;21.92;59.04;99060.19;20643338;28;20234;-40
2023/12/12 14:16:34;;;;;;;129.18;82.43;;;;;;;22.08;59.33;99023.94;20639059;28;20206;-41
2023/12/12 14:26:37;;;;;;;125.63;82.15;;;;;;;22.14;59.29;99024.41;20641115;28;20229;-41
2023/12/12 14:36:40;;;;;;;110.23;78.90;;;;;;;22.02;59.06;99026.34;20634131;28;20534;-41
2023/12/12 14:46:43;;;;;;;90.32;59.85;;;;;;;22.31;59.58;99010.41;20629403;28;20237;-40
2023/12/12 14:56:45;;;;;;;80.68;52.55;;;;;;;22.38;59.90;99009.63;20636494;28;20517;-40
2023/12/12 15:06:48;;;;;;;87.05;59.30;;;;;;;22.40;59.88;99004.38;20604250;28;20234;-39
2023/12/12 15:16:50;;;;;;;112.43;74.15;;;;;;;22.41;59.64;98972.00;20644902;28;20297;-38
2023/12/12 15:26:54;;;;;;;116.93;76.38;;;;;;;22.45;59.17;98975.66;20630232;28;20503;-39
2023/12/12 15:36:56;;;;;;;101.25;68.05;;;;;;;22.37;58.91;98976.81;20646706;28;20608;-41
2023/12/12 15:47:07;;;;;;;160.77;107.18;;;;;;;22.43;58.95;98952.56;20644207;28;20256;-39
2023/12/12 15:57:09;;;;;;;146.10;100.70;;;;;;;22.41;58.72;98933.13;20650240;28;20586;-39
2023/12/12 16:07:13;;;;;;;124.63;85.63;;;;;;;22.40;58.37;98905.97;20641945;28;20221;-39
2023/12/12 16:17:14;;;;;;;123.05;84.40;;;;;;;22.22;57.36;98895.72;20657701;28;20229;-50
2023/12/12 16:27:18;;;;;;;114.53;77.47;;;;;;;22.29;58.29;98884.44;20651163;28;20209;-41
2023/12/12 16:37:20;;;;;;;95.00;65.53;;;;;;;22.37;58.40;98871.94;20643701;28;20232;-42
2023/12/12 16:47:25;;;;;;;117.60;79.82;;;;;;;22.36;58.21;98858.97;20638799;28;20234;-51
2023/12/12 16:57:26;;;;;;;162.57;106.55;;;;;;;22.45;57.89;98834.75;20651867;28;20210;-57
2023/12/12 17:07:29;;;;;;;149.70;99.85;;;;;;;22.44;58.54;98809.63;20649507;28;20200;-44
2023/12/12 17:17:31;;;;;;;154.32;105.90;;;;;;;22.75;57.54;98808.91;20653668;28;20265;-58
2023/12/12 17:27:34;;;;;;;147.23;101.18;;;;;;;22.59;57.79;98811.28;20653808;28;20194;-61
2023/12/12 17:37:39;;;;;;;295.73;209.45;;;;;;;22.66;57.90;98802.81;20663353;28;20326;-52
2023/12/12 17:47:43;;;;;;;315.98;221.23;;;;;;;22.79;57.55;98789.91;20650969;28;20583;-41
2023/12/12 17:57:45;;;;;;;277.52;193.15;;;;;;;22.90;57.80;98784.25;20657114;28;20625;-44
2023/12/12 18:07:48;;;;;;;249.90;172.50;;;;;;;22.92;57.42;98778.19;20637507;28;20273;-41
2023/12/12 18:17:50;;;;;;;209.48;141.70;;;;;;;22.79;56.81;98770.06;20631227;28;20240;-41
2023/12/12 18:27:53;;;;;;;284.67;200.13;;;;;;;22.83;57.22;98763.59;20643669;28;20212;-40
2023/12/12 18:37:55;;;;;;;287.38;205.15;;;;;;;22.75;57.26;98746.50;20655441;28;20232;-55
2023/12/12 18:47:58;;;;;;;383.85;283.98;;;;;;;22.69;57.56;98745.28;20638399;28;20252;-40
2023/12/12 18:58:00;;;;;;;353.85;265.65;;;;;;;22.69;57.67;98741.66;20635854;28;20248;-47
2023/12/12 19:08:04;;;;;;;322.13;241.02;;;;;;;22.68;57.25;98734.34;20639646;28;20284;-42
2023/12/12 19:18:06;;;;;;;298.63;220.98;;;;;;;22.52;57.30;98734.72;20638497;28;20497;-60
2023/12/12 19:28:09;;;;;;;278.02;208.27;;;;;;;22.48;57.70;98721.72;20646877;28;20310;-59
2023/12/12 19:38:10;;;;;;;268.38;197.65;;;;;;;22.63;57.76;98721.38;20657146;28;20225;-44
2023/12/12 19:48:13;;;;;;;255.00;184.25;;;;;;;22.57;58.39;98720.16;20666469;28;20311;-46
2023/12/12 19:58:16;;;;;;;237.90;169.88;;;;;;;22.67;58.42;98719.34;20650725;28;20254;-58
2023/12/12 20:08:19;;;;;;;233.25;166.57;;;;;;;22.70;58.67;98717.75;20638028;28;20228;-57
2023/12/12 20:18:24;;;;;;;328.98;250.55;;;;;;;22.78;58.88;98711.69;20649300;28;20221;-49
2023/12/12 20:28:27;;;;;;;315.02;241.02;;;;;;;22.80;59.17;98709.28;20640399;28;20487;-43
2023/12/12 20:38:30;;;;;;;303.98;228.40;;;;;;;22.77;58.75;98707.25;20659162;28;20611;-45
2023/12/12 20:48:33;;;;;;;388.95;290.45;;;;;;;22.67;58.77;98704.38;20650015;28;20238;-51
